createdAt,value
2022-08-19T00:00:42.817Z,98969.42
2022-08-19T00:01:45.515Z,98962.80
2022-08-19T00:02:50.590Z,98977.22
2022-08-19T00:03:53.419Z,98975.15
2022-08-19T00:04:56.043Z,98969.18
2022-08-19T00:05:58.758Z,98976.39
2022-08-19T00:07:01.626Z,98979.31
2022-08-19T00:08:04.396Z,98978.65
2022-08-19T00:09:06.959Z,98980.50
2022-08-19T00:10:10.208Z,98990.19
2022-08-19T00:11:18.585Z,98992.41
2022-08-19T00:12:17.431Z,98988.30
2022-08-19T00:13:20.059Z,98986.44
2022-08-19T00:14:22.776Z,98990.77
2022-08-19T00:15:25.436Z,98996.95
2022-08-19T00:16:28.413Z,98992.41
2022-08-19T00:17:30.984Z,98986.69
2022-08-19T00:18:33.648Z,98994.34
2022-08-19T00:19:36.135Z,98996.13
2022-08-19T00:20:40.524Z,98980.05
2022-08-19T00:21:43.308Z,98991.59
2022-08-19T00:22:46.301Z,98983.77
2022-08-19T00:23:48.944Z,98988.75
2022-08-19T00:24:51.923Z,98986.31
2022-08-19T00:25:54.546Z,98988.37
2022-08-19T00:26:57.574Z,98985.04
2022-08-19T00:28:02.082Z,98986.89
2022-08-19T00:29:04.745Z,98984.66
2022-08-19T00:30:08.028Z,98990.84
2022-08-19T00:31:10.598Z,98990.84
2022-08-19T00:32:13.263Z,98992.45
2022-08-19T00:33:16.651Z,98983.63
2022-08-19T00:34:19.224Z,98993.97
2022-08-19T00:35:21.931Z,98995.83
2022-08-19T00:36:26.299Z,99001.18
2022-08-19T00:37:28.965Z,99000.73
2022-08-19T00:38:35.107Z,98996.20
2022-08-19T00:39:36.433Z,98995.37
2022-08-19T00:40:39.532Z,98995.13
2022-08-19T00:41:42.055Z,98997.61
2022-08-19T00:42:44.768Z,98988.75
2022-08-19T00:43:47.644Z,98993.73
2022-08-19T00:44:50.208Z,98996.20
2022-08-19T00:45:52.779Z,99002.37
2022-08-19T00:46:58.025Z,98994.17
2022-08-19T00:48:00.177Z,98992.33
2022-08-19T00:49:03.156Z,98999.33
2022-08-19T00:50:06.117Z,98996.86
2022-08-19T00:51:08.783Z,98996.69
2022-08-19T00:52:11.469Z,98996.48
2022-08-19T00:53:14.124Z,98993.56
2022-08-19T00:54:16.729Z,98993.56
2022-08-19T00:55:19.213Z,99000.63
2022-08-19T00:56:23.052Z,99002.48
2022-08-19T00:57:25.727Z,98998.55
2022-08-19T00:58:28.399Z,99002.21
2022-08-19T00:59:56.105Z,98998.50
2022-08-19T01:00:36.082Z,98997.68
2022-08-19T01:01:38.912Z,99002.80
2022-08-19T01:02:41.597Z,99000.12
2022-08-19T01:03:57.958Z,99002.42
2022-08-19T01:04:48.920Z,99004.27
2022-08-19T01:05:51.582Z,98998.33
2022-08-19T01:06:54.658Z,99013.58
2022-08-19T01:07:57.225Z,99003.11
2022-08-19T01:08:59.998Z,99017.52
2022-08-19T01:10:02.975Z,99006.20
2022-08-19T01:11:05.663Z,99010.73
2022-08-19T01:12:08.214Z,99014.23
2022-08-19T01:13:10.884Z,99005.16
2022-08-19T01:14:13.547Z,99005.61
2022-08-19T01:15:16.330Z,98998.61
2022-08-19T01:16:20.746Z,98999.64
2022-08-19T01:17:23.399Z,98999.64
2022-08-19T01:18:25.982Z,99002.94
2022-08-19T01:19:28.539Z,99006.44
2022-08-19T01:20:31.517Z,99010.97
2022-08-19T01:21:34.391Z,99003.52
2022-08-19T01:22:37.756Z,99000.43
2022-08-19T01:23:40.398Z,99002.87
2022-08-19T01:24:46.751Z,98999.61
2022-08-19T01:25:47.518Z,98992.98
2022-08-19T01:26:50.295Z,98999.36
2022-08-19T01:27:53.589Z,98998.55
2022-08-19T01:28:59.474Z,98995.86
2022-08-19T01:30:01.071Z,98991.33
2022-08-19T01:31:08.007Z,98990.75
2022-08-19T01:32:08.104Z,98995.48
2022-08-19T01:33:12.559Z,98983.58
2022-08-19T01:34:15.222Z,98987.70
2022-08-19T01:35:17.816Z,98993.26
2022-08-19T01:36:21.605Z,98988.94
2022-08-19T01:37:27.079Z,99001.12
2022-08-19T01:38:28.563Z,99007.53
2022-08-19T01:39:31.189Z,98998.03
2022-08-19T01:40:34.727Z,99001.36
2022-08-19T01:41:37.802Z,99006.89
2022-08-19T01:42:41.089Z,98998.86
2022-08-19T01:44:16.902Z,99002.59
2022-08-19T01:44:48.271Z,98999.30
2022-08-19T01:45:50.948Z,99003.63
2022-08-19T01:46:54.223Z,98996.42
2022-08-19T01:48:01.493Z,98990.45
2022-08-19T01:49:01.348Z,98991.72
2022-08-19T01:50:04.396Z,98988.22
2022-08-19T01:51:07.052Z,98992.75
2022-08-19T01:52:09.717Z,98996.08
2022-08-19T01:53:12.284Z,98998.98
2022-08-19T01:54:23.119Z,98990.78
2022-08-19T01:55:19.393Z,98996.58
2022-08-19T01:56:23.159Z,98991.05
2022-08-19T01:57:25.759Z,98996.20
2022-08-19T01:58:28.288Z,98993.73
2022-08-19T01:59:30.853Z,98988.61
2022-08-19T02:00:33.434Z,98981.62
2022-08-19T02:01:36.034Z,98991.70
2022-08-19T02:02:38.861Z,98984.35
2022-08-19T02:03:41.530Z,98985.97
2022-08-19T02:04:44.219Z,98990.50
2022-08-19T02:05:46.807Z,98988.88
2022-08-19T02:06:49.869Z,98982.53
2022-08-19T02:07:52.517Z,98986.23
2022-08-19T02:08:57.540Z,98986.85
2022-08-19T02:09:59.492Z,98990.17
2022-08-19T02:11:03.904Z,98983.55
2022-08-19T02:12:06.583Z,98983.41
2022-08-19T02:13:09.139Z,98977.44
2022-08-19T02:14:11.668Z,98978.88
2022-08-19T02:15:14.271Z,98978.64
2022-08-19T02:16:18.589Z,98975.41
2022-08-19T02:17:21.208Z,98977.44
2022-08-19T02:18:28.122Z,98982.97
2022-08-19T02:19:28.330Z,98980.30
2022-08-19T02:20:31.304Z,98978.27
2022-08-19T02:21:33.870Z,98986.93
2022-08-19T02:22:36.601Z,98989.84
2022-08-19T02:23:39.624Z,98993.16
2022-08-19T02:24:42.391Z,98993.98
2022-08-19T02:25:45.060Z,98987.80
2022-08-19T02:26:47.958Z,98991.51
2022-08-19T02:27:50.519Z,98985.33
2022-08-19T02:28:53.615Z,98991.77
2022-08-19T02:29:56.153Z,98995.05
2022-08-19T02:30:59.126Z,98998.75
2022-08-19T02:32:01.790Z,98991.36
2022-08-19T02:33:04.361Z,99002.64
2022-08-19T02:34:07.232Z,98989.77
2022-08-19T02:35:12.105Z,99003.08
2022-08-19T02:36:15.531Z,99007.60
2022-08-19T02:37:18.316Z,99001.48
2022-08-19T02:38:20.998Z,99000.84
2022-08-19T02:39:23.507Z,99001.23
2022-08-19T02:40:27.548Z,99010.07
2022-08-19T02:41:30.111Z,99012.17
2022-08-19T02:42:33.399Z,99010.52
2022-08-19T02:43:36.087Z,99009.50
2022-08-19T02:44:39.763Z,99001.87
2022-08-19T02:45:44.091Z,99015.00
2022-08-19T02:46:46.944Z,99017.47
2022-08-19T02:47:49.571Z,99017.04
2022-08-19T02:48:52.186Z,99014.61
2022-08-19T02:49:54.859Z,99015.23
2022-08-19T02:50:57.932Z,99020.09
2022-08-19T02:52:00.583Z,99022.91
2022-08-19T02:53:03.266Z,99019.98
2022-08-19T02:54:05.835Z,99018.51
2022-08-19T02:55:08.613Z,99024.89
2022-08-19T02:56:11.682Z,99020.16
2022-08-19T02:57:14.250Z,99015.78
2022-08-19T02:58:16.821Z,99016.98
2022-08-19T02:59:22.019Z,99032.34
2022-08-19T03:00:24.104Z,99029.84
2022-08-19T03:01:26.747Z,99035.13
2022-08-19T03:02:29.649Z,99033.52
2022-08-19T03:03:32.419Z,99033.89
2022-08-19T03:04:34.991Z,99029.77
2022-08-19T03:05:48.433Z,99030.53
2022-08-19T03:06:42.482Z,99037.02
2022-08-19T03:07:45.457Z,99028.33
2022-08-19T03:08:48.226Z,99017.55
2022-08-19T03:09:50.796Z,99019.28
2022-08-19T03:10:53.875Z,99018.22
2022-08-19T03:11:56.543Z,99022.05
2022-08-19T03:12:59.108Z,99019.73
2022-08-19T03:14:03.724Z,99025.02
2022-08-19T03:15:06.291Z,99026.21
2022-08-19T03:16:09.267Z,99029.78
2022-08-19T03:17:11.759Z,99032.47
2022-08-19T03:18:14.304Z,99023.69
2022-08-19T03:19:20.012Z,99031.86
2022-08-19T03:20:23.788Z,99031.86
2022-08-19T03:21:27.077Z,99035.73
2022-08-19T03:22:30.612Z,99038.33
2022-08-19T03:23:33.235Z,99050.48
2022-08-19T03:24:35.948Z,99047.36
2022-08-19T03:25:38.579Z,99048.23
2022-08-19T03:26:41.825Z,99049.66
2022-08-19T03:27:44.400Z,99051.60
2022-08-19T03:28:49.473Z,99057.63
2022-08-19T03:29:51.650Z,99051.14
2022-08-19T03:30:54.782Z,99061.03
2022-08-19T03:31:57.401Z,99062.66
2022-08-19T03:33:00.368Z,99060.59
2022-08-19T03:34:02.899Z,99055.60
2022-08-19T03:35:06.729Z,99062.98
2022-08-19T03:36:10.835Z,99062.16
2022-08-19T03:37:13.428Z,99068.34
2022-08-19T03:38:16.070Z,99075.47
2022-08-19T03:39:18.649Z,99069.80
2022-08-19T03:40:23.051Z,99082.20
2022-08-19T03:41:25.673Z,99079.08
2022-08-19T03:42:38.793Z,99081.38
2022-08-19T03:43:35.074Z,99079.21
2022-08-19T03:44:37.641Z,99076.16
2022-08-19T03:45:41.004Z,99073.13
2022-08-19T03:46:44.528Z,99072.48
2022-08-19T03:47:47.568Z,99080.75
2022-08-19T03:48:50.544Z,99071.52
2022-08-19T03:49:53.212Z,99074.57
2022-08-19T03:50:56.495Z,99068.12
2022-08-19T03:51:59.064Z,99073.03
2022-08-19T03:53:01.731Z,99074.50
2022-08-19T03:54:04.403Z,99073.34
2022-08-19T03:55:07.103Z,99071.86
2022-08-19T03:56:11.074Z,99073.95
2022-08-19T03:57:13.771Z,99075.16
2022-08-19T03:58:16.717Z,99066.75
2022-08-19T03:59:19.383Z,99070.38
2022-08-19T04:00:23.614Z,99070.73
2022-08-19T04:01:33.066Z,99073.20
2022-08-19T04:02:31.348Z,99070.08
2022-08-19T04:03:34.086Z,99075.64
2022-08-19T04:04:36.602Z,99076.56
2022-08-19T04:05:39.397Z,99081.41
2022-08-19T04:06:42.371Z,99081.28
2022-08-19T04:07:44.956Z,99088.03
2022-08-19T04:08:47.480Z,99077.93
2022-08-19T04:09:49.972Z,99078.73
2022-08-19T04:10:52.740Z,99075.39
2022-08-19T04:11:55.307Z,99080.91
2022-08-19T04:12:57.982Z,99086.93
2022-08-19T04:14:00.650Z,99081.20
2022-08-19T04:15:05.159Z,99085.52
2022-08-19T04:16:08.243Z,99087.00
2022-08-19T04:17:10.908Z,99086.97
2022-08-19T04:18:13.471Z,99095.97
2022-08-19T04:19:16.249Z,99095.55
2022-08-19T04:20:20.720Z,99092.13
2022-08-19T04:21:23.695Z,99087.98
2022-08-19T04:22:26.711Z,99085.92
2022-08-19T04:23:31.181Z,99089.09
2022-08-19T04:24:33.925Z,99095.66
2022-08-19T04:25:36.463Z,99094.63
2022-08-19T04:26:39.128Z,99085.53
2022-08-19T04:27:41.701Z,99091.27
2022-08-19T04:28:44.367Z,99087.07
2022-08-19T04:29:46.922Z,99087.20
2022-08-19T04:30:49.907Z,99091.37
2022-08-19T04:31:52.580Z,99087.00
2022-08-19T04:32:55.427Z,99095.58
2022-08-19T04:33:58.335Z,99087.77
2022-08-19T04:35:02.072Z,99084.63
2022-08-19T04:36:05.612Z,99086.77
2022-08-19T04:37:08.135Z,99087.66
2022-08-19T04:38:10.748Z,99089.22
2022-08-19T04:39:13.722Z,99089.95
2022-08-19T04:40:17.005Z,99091.05
2022-08-19T04:41:19.899Z,99088.05
2022-08-19T04:42:23.265Z,99085.06
2022-08-19T04:43:27.737Z,99087.89
2022-08-19T04:44:30.444Z,99087.64
2022-08-19T04:45:39.471Z,99091.41
2022-08-19T04:46:51.357Z,99089.28
2022-08-19T04:47:49.263Z,99078.20
2022-08-19T04:48:49.749Z,99080.46
2022-08-19T04:49:53.116Z,99081.50
2022-08-19T04:50:56.392Z,99078.30
2022-08-19T04:51:58.970Z,99084.75
2022-08-19T04:53:01.631Z,99085.54
2022-08-19T04:54:04.543Z,99088.52
2022-08-19T04:55:07.587Z,99088.01
2022-08-19T04:56:10.612Z,99089.66
2022-08-19T04:57:14.460Z,99087.48
2022-08-19T04:58:17.064Z,99087.84
2022-08-19T04:59:19.653Z,99086.11
2022-08-19T05:00:23.081Z,99095.45
2022-08-19T05:01:26.129Z,99088.89
2022-08-19T05:02:28.831Z,99086.81
2022-08-19T05:03:31.709Z,99093.72
2022-08-19T05:04:34.380Z,99091.85
2022-08-19T05:05:44.664Z,99095.92
2022-08-19T05:06:42.158Z,99093.34
2022-08-19T05:07:44.737Z,99097.27
2022-08-19T05:08:47.509Z,99101.87
2022-08-19T05:09:58.100Z,99090.42
2022-08-19T05:10:55.306Z,99088.22
2022-08-19T05:11:57.840Z,99099.95
2022-08-19T05:13:00.643Z,99090.72
2022-08-19T05:14:03.215Z,99097.48
2022-08-19T05:15:05.839Z,99098.78
2022-08-19T05:16:09.268Z,99100.40
2022-08-19T05:17:26.972Z,99105.42
2022-08-19T05:18:16.756Z,99103.44
2022-08-19T05:19:19.343Z,99107.06
2022-08-19T05:20:23.837Z,99108.45
2022-08-19T05:21:26.875Z,99112.91
2022-08-19T05:22:29.625Z,99113.83
2022-08-19T05:23:33.073Z,99117.81
2022-08-19T05:24:41.345Z,99115.26
2022-08-19T05:25:40.355Z,99107.88
2022-08-19T05:26:44.827Z,99109.61
2022-08-19T05:27:47.444Z,99106.70
2022-08-19T05:28:53.036Z,99109.14
2022-08-19T05:29:54.631Z,99111.22
2022-08-19T05:30:57.695Z,99108.07
2022-08-19T05:32:00.522Z,99111.56
2022-08-19T05:33:04.052Z,99112.95
2022-08-19T05:34:06.618Z,99116.65
2022-08-19T05:35:11.138Z,99117.92
2022-08-19T05:36:15.542Z,99127.34
2022-08-19T05:37:18.332Z,99123.23
2022-08-19T05:38:20.882Z,99121.70
2022-08-19T05:39:23.451Z,99125.02
2022-08-19T05:40:27.243Z,99123.19
2022-08-19T05:41:32.063Z,99130.48
2022-08-19T05:42:34.631Z,99115.59
2022-08-19T05:43:37.407Z,99117.28
2022-08-19T05:44:39.971Z,99115.07
2022-08-19T05:45:42.658Z,99115.38
2022-08-19T05:46:45.674Z,99102.61
2022-08-19T05:47:48.285Z,99108.33
2022-08-19T05:48:50.953Z,99115.30
2022-08-19T05:49:55.465Z,99112.61
2022-08-19T05:50:58.263Z,99114.22
2022-08-19T05:52:00.907Z,99119.73
2022-08-19T05:53:03.539Z,99113.56
2022-08-19T05:54:06.142Z,99117.92
2022-08-19T05:55:08.711Z,99118.08
2022-08-19T05:56:12.158Z,99104.51
2022-08-19T05:57:14.764Z,99107.98
2022-08-19T05:58:17.298Z,99103.66
2022-08-19T05:59:20.207Z,99107.75
2022-08-19T06:00:24.860Z,99108.63
2022-08-19T06:01:28.007Z,99100.73
2022-08-19T06:02:31.012Z,99113.41
2022-08-19T06:03:33.978Z,99108.79
2022-08-19T06:04:36.519Z,99099.48
2022-08-19T06:05:42.244Z,99108.64
2022-08-19T06:06:43.703Z,99107.70
2022-08-19T06:07:46.581Z,99108.50
2022-08-19T06:08:49.355Z,99105.22
2022-08-19T06:10:00.425Z,99106.94
2022-08-19T06:10:56.839Z,99107.58
2022-08-19T06:11:59.330Z,99110.55
2022-08-19T06:13:01.975Z,99107.02
2022-08-19T06:14:04.537Z,99108.70
2022-08-19T06:15:07.067Z,99105.90
2022-08-19T06:16:10.492Z,99116.25
2022-08-19T06:17:13.116Z,99115.95
2022-08-19T06:18:15.687Z,99116.23
2022-08-19T06:19:18.299Z,99106.03
2022-08-19T06:20:39.814Z,99113.14
2022-08-19T06:21:25.991Z,99110.41
2022-08-19T06:22:29.376Z,99110.23
2022-08-19T06:23:32.002Z,99108.28
2022-08-19T06:24:34.610Z,99109.42
2022-08-19T06:25:37.277Z,99116.11
2022-08-19T06:26:40.381Z,99107.45
2022-08-19T06:28:47.851Z,99106.64
2022-08-19T06:29:50.480Z,99105.23
2022-08-19T06:30:53.495Z,99102.19
2022-08-19T06:31:56.120Z,99105.59
2022-08-19T06:32:58.689Z,99103.98
2022-08-19T06:34:01.294Z,99110.80
2022-08-19T06:35:05.814Z,99119.45
2022-08-19T06:36:10.219Z,99114.56
2022-08-19T06:37:12.748Z,99123.18
2022-08-19T06:38:15.372Z,99124.86
2022-08-19T06:39:18.186Z,99121.91
2022-08-19T06:40:22.253Z,99120.22
2022-08-19T06:41:25.166Z,99122.50
2022-08-19T06:42:27.736Z,99131.38
2022-08-19T06:43:30.439Z,99125.64
2022-08-19T06:44:33.414Z,99126.95
2022-08-19T06:45:39.565Z,99127.03
2022-08-19T06:46:41.269Z,99123.14
2022-08-19T06:47:46.036Z,99129.66
2022-08-19T06:48:50.542Z,99132.85
2022-08-19T06:49:53.862Z,99134.41
2022-08-19T06:50:56.699Z,99124.66
2022-08-19T06:51:59.471Z,99131.50
2022-08-19T06:53:04.479Z,99135.05
2022-08-19T06:54:07.582Z,99127.64
2022-08-19T06:55:12.197Z,99134.80
2022-08-19T06:56:16.809Z,99137.57
2022-08-19T06:57:19.479Z,99129.56
2022-08-19T06:58:21.999Z,99136.14
2022-08-19T06:59:24.612Z,99138.05
2022-08-19T07:00:28.305Z,99139.63
2022-08-19T07:01:31.175Z,99137.21
2022-08-19T07:02:33.849Z,99135.80
2022-08-19T07:03:37.403Z,99142.38
2022-08-19T07:04:42.196Z,99137.07
2022-08-19T07:05:45.647Z,99131.38
2022-08-19T07:06:55.015Z,99143.95
2022-08-19T07:07:53.642Z,99134.03
2022-08-19T07:08:58.156Z,99145.15
2022-08-19T07:10:02.022Z,99147.84
2022-08-19T07:11:09.223Z,99143.22
2022-08-19T07:12:10.511Z,99149.47
2022-08-19T07:13:13.339Z,99147.30
2022-08-19T07:14:16.695Z,99149.22
2022-08-19T07:15:20.351Z,99147.93
2022-08-19T07:16:28.924Z,99148.79
2022-08-19T07:17:28.417Z,99153.95
2022-08-19T07:18:30.963Z,99150.16
2022-08-19T07:19:33.684Z,99143.94
2022-08-19T07:20:37.029Z,99147.73
2022-08-19T07:21:40.734Z,99149.08
2022-08-19T07:22:44.527Z,99146.04
2022-08-19T07:23:48.736Z,99151.77
2022-08-19T07:24:51.851Z,99152.88
2022-08-19T07:27:08.478Z,99144.73
2022-08-19T07:28:09.140Z,99145.28
2022-08-19T07:29:13.764Z,99151.24
2022-08-19T07:30:17.652Z,99147.98
2022-08-19T07:31:23.059Z,99141.43
2022-08-19T07:32:24.751Z,99145.55
2022-08-19T07:33:28.428Z,99147.63
2022-08-19T07:34:32.527Z,99137.25
2022-08-19T07:35:35.198Z,99141.22
2022-08-19T07:36:38.277Z,99143.86
2022-08-19T07:37:40.948Z,99145.95
2022-08-19T07:38:43.925Z,99137.98
2022-08-19T07:39:48.436Z,99139.17
2022-08-19T07:40:52.028Z,99148.27
2022-08-19T07:41:54.696Z,99143.37
2022-08-19T07:42:57.628Z,99142.01
2022-08-19T07:44:00.368Z,99144.06
2022-08-19T07:45:02.924Z,99143.37
2022-08-19T07:46:06.343Z,99152.97
2022-08-19T07:47:47.181Z,99148.86
2022-08-19T07:48:13.783Z,99144.59
2022-08-19T07:49:16.452Z,99152.64
2022-08-19T07:50:20.460Z,99145.20
2022-08-19T07:51:36.746Z,99153.29
2022-08-19T07:52:27.840Z,99150.52
2022-08-19T07:53:30.424Z,99148.23
2022-08-19T07:54:33.177Z,99149.78
2022-08-19T07:55:41.967Z,99153.48
2022-08-19T07:56:41.646Z,99149.31
2022-08-19T07:58:46.748Z,99157.52
2022-08-19T07:59:49.395Z,99148.37
2022-08-19T08:00:52.271Z,99149.75
2022-08-19T08:01:54.996Z,99149.05
2022-08-19T08:02:58.018Z,99149.72
2022-08-19T08:04:00.802Z,99155.98
2022-08-19T08:05:03.556Z,99161.27
2022-08-19T08:06:06.532Z,99158.08
2022-08-19T08:07:09.123Z,99156.77
2022-08-19T08:08:11.767Z,99162.09
2022-08-19T08:09:16.438Z,99156.50
2022-08-19T08:10:21.562Z,99157.40
2022-08-19T08:11:25.716Z,99158.75
2022-08-19T08:12:34.669Z,99161.29
2022-08-19T08:13:34.640Z,99158.87
2022-08-19T08:14:37.320Z,99158.59
2022-08-19T08:15:43.121Z,99162.16
2022-08-19T08:16:46.938Z,99161.73
2022-08-19T08:17:51.513Z,99173.23
2022-08-19T08:18:54.232Z,99170.01
2022-08-19T08:19:56.857Z,99168.88
2022-08-19T08:20:59.830Z,99164.13
2022-08-19T08:22:02.475Z,99165.56
2022-08-19T08:23:05.424Z,99174.48
2022-08-19T08:24:08.185Z,99170.05
2022-08-19T08:25:11.166Z,99173.89
2022-08-19T08:26:14.759Z,99173.08
2022-08-19T08:27:20.231Z,99180.42
2022-08-19T08:28:23.578Z,99171.42
2022-08-19T08:29:26.235Z,99172.34
2022-08-19T08:30:32.630Z,99166.28
2022-08-19T08:31:35.741Z,99173.66
2022-08-19T08:32:38.349Z,99162.92
2022-08-19T08:33:41.434Z,99166.91
2022-08-19T08:34:47.421Z,99165.39
2022-08-19T08:35:50.488Z,99162.73
2022-08-19T08:36:53.637Z,99169.43
2022-08-19T08:37:56.548Z,99170.07
2022-08-19T08:38:59.399Z,99173.16
2022-08-19T08:40:02.268Z,99169.69
2022-08-19T08:41:05.497Z,99176.75
2022-08-19T08:42:09.872Z,99177.52
2022-08-19T08:43:12.782Z,99175.55
2022-08-19T08:44:17.145Z,99175.42
2022-08-19T08:45:20.355Z,99182.05
2022-08-19T08:46:31.053Z,99174.16
2022-08-19T08:47:29.401Z,99171.53
2022-08-19T08:48:32.062Z,99171.59
2022-08-19T08:49:34.852Z,99176.55
2022-08-19T08:50:39.298Z,99168.38
2022-08-19T08:52:45.254Z,99165.81
2022-08-19T08:53:48.388Z,99164.07
2022-08-19T08:54:55.164Z,99166.80
2022-08-19T08:55:55.512Z,99156.91
2022-08-19T08:56:59.161Z,99172.42
2022-08-19T08:58:02.800Z,99168.53
2022-08-19T08:59:05.768Z,99166.91
2022-08-19T09:00:08.647Z,99168.31
2022-08-19T09:01:13.610Z,99165.83
2022-08-19T09:02:16.194Z,99174.42
2022-08-19T09:03:19.171Z,99173.52
2022-08-19T09:04:21.883Z,99176.28
2022-08-19T09:05:26.397Z,99172.48
2022-08-19T09:06:30.294Z,99172.48
2022-08-19T09:07:35.903Z,99173.59
2022-08-19T09:08:37.476Z,99176.39
2022-08-19T09:09:40.447Z,99165.81
2022-08-19T09:10:45.191Z,99163.52
2022-08-19T09:11:47.783Z,99165.98
2022-08-19T09:12:51.634Z,99161.75
2022-08-19T09:13:54.263Z,99155.33
2022-08-19T09:14:56.825Z,99163.70
2022-08-19T09:15:59.391Z,99158.00
2022-08-19T09:17:02.474Z,99162.68
2022-08-19T09:18:07.169Z,99162.69
2022-08-19T09:19:09.578Z,99157.56
2022-08-19T09:20:12.671Z,99167.89
2022-08-19T09:21:16.776Z,99160.06
2022-08-19T09:22:25.665Z,99155.82
2022-08-19T09:23:26.720Z,99163.40
2022-08-19T09:24:31.037Z,99162.49
2022-08-19T09:25:34.313Z,99164.44
2022-08-19T09:26:48.664Z,99158.27
2022-08-19T09:27:43.355Z,99158.67
2022-08-19T09:28:48.689Z,99153.13
2022-08-19T09:29:50.695Z,99156.94
2022-08-19T09:30:53.755Z,99156.34
2022-08-19T09:31:57.088Z,99155.20
2022-08-19T09:33:00.055Z,99161.71
2022-08-19T09:34:02.723Z,99167.88
2022-08-19T09:35:08.889Z,99163.73
2022-08-19T09:36:13.495Z,99162.09
2022-08-19T09:37:17.892Z,99180.66
2022-08-19T09:38:20.515Z,99173.45
2022-08-19T09:39:23.755Z,99168.09
2022-08-19T09:40:27.074Z,99162.30
2022-08-19T09:41:31.547Z,99172.13
2022-08-19T09:42:35.317Z,99172.83
2022-08-19T09:43:44.676Z,99171.45
2022-08-19T09:44:43.252Z,99163.44
2022-08-19T09:45:46.229Z,99166.77
2022-08-19T09:46:49.398Z,99162.77
2022-08-19T09:47:53.843Z,99156.83
2022-08-19T09:48:56.373Z,99155.73
2022-08-19T09:49:59.003Z,99160.42
2022-08-19T09:51:02.225Z,99156.08
2022-08-19T09:52:04.891Z,99158.12
2022-08-19T09:53:07.562Z,99170.14
2022-08-19T09:54:11.385Z,99163.86
2022-08-19T09:55:14.293Z,99157.49
2022-08-19T09:56:18.747Z,99162.56
2022-08-19T09:57:22.353Z,99180.25
2022-08-19T09:58:26.729Z,99172.04
2022-08-19T09:59:29.520Z,99170.39
2022-08-19T10:00:34.952Z,99167.95
2022-08-19T10:01:37.706Z,99161.20
2022-08-19T10:02:41.014Z,99162.95
2022-08-19T10:03:45.937Z,99164.55
2022-08-19T10:04:50.858Z,99165.53
2022-08-19T10:05:55.484Z,99164.64
2022-08-19T10:06:58.071Z,99167.48
2022-08-19T10:08:00.730Z,99170.22
2022-08-19T10:09:03.232Z,99166.57
2022-08-19T10:10:08.606Z,99175.16
2022-08-19T10:11:28.692Z,99161.48
2022-08-19T10:12:15.831Z,99165.53
2022-08-19T10:13:20.308Z,99167.08
2022-08-19T10:14:22.934Z,99176.06
2022-08-19T10:15:29.044Z,99164.94
2022-08-19T10:16:31.791Z,99168.38
2022-08-19T10:17:36.303Z,99172.66
2022-08-19T10:18:39.705Z,99171.45
2022-08-19T10:19:53.424Z,99176.98
2022-08-19T10:20:51.234Z,99178.71
2022-08-19T10:21:54.457Z,99178.23
2022-08-19T10:22:59.890Z,99177.84
2022-08-19T10:24:02.626Z,99178.70
2022-08-19T10:25:05.235Z,99176.92
2022-08-19T10:26:08.857Z,99173.08
2022-08-19T10:27:11.783Z,99172.50
2022-08-19T10:28:14.458Z,99171.87
2022-08-19T10:29:32.779Z,99183.33
2022-08-19T10:30:22.886Z,99177.55
2022-08-19T10:32:00.474Z,99178.37
2022-08-19T10:32:34.114Z,99175.63
2022-08-19T10:33:40.852Z,99179.47
2022-08-19T10:34:48.321Z,99174.19
2022-08-19T10:35:56.834Z,99178.00
2022-08-19T10:36:56.042Z,99174.23
2022-08-19T10:37:57.313Z,99172.42
2022-08-19T10:39:00.403Z,99176.48
2022-08-19T10:40:03.530Z,99182.63
2022-08-19T10:41:06.464Z,99174.70
2022-08-19T10:42:09.127Z,99176.59
2022-08-19T10:43:12.103Z,99173.34
2022-08-19T10:44:14.771Z,99175.69
2022-08-19T10:45:17.346Z,99177.00
2022-08-19T10:46:21.047Z,99173.05
2022-08-19T10:47:25.900Z,99178.48
2022-08-19T10:48:28.216Z,99179.23
2022-08-19T10:49:30.812Z,99178.56
2022-08-19T10:50:34.781Z,99177.78
2022-08-19T10:51:37.451Z,99178.91
2022-08-19T10:52:49.973Z,99180.23
2022-08-19T10:53:46.372Z,99172.23
2022-08-19T10:54:50.685Z,99173.81
2022-08-19T10:55:53.383Z,99176.47
2022-08-19T10:56:56.223Z,99167.30
2022-08-19T10:58:03.250Z,99160.54
2022-08-19T10:59:05.020Z,99168.28
2022-08-19T11:00:09.864Z,99169.15
2022-08-19T11:01:12.498Z,99169.95
2022-08-19T11:02:16.123Z,99168.98
2022-08-19T11:03:18.750Z,99172.99
2022-08-19T11:04:21.360Z,99169.87
2022-08-19T11:05:26.014Z,99164.45
2022-08-19T11:06:30.181Z,99153.51
2022-08-19T11:07:32.858Z,99167.34
2022-08-19T11:08:35.863Z,99163.34
2022-08-19T11:09:38.702Z,99167.86
2022-08-19T11:10:43.110Z,99164.47
2022-08-19T11:11:47.519Z,99163.72
2022-08-19T11:12:50.095Z,99158.61
2022-08-19T11:13:52.612Z,99159.87
2022-08-19T11:14:55.186Z,99162.10
2022-08-19T11:15:57.745Z,99152.86
2022-08-19T11:17:00.839Z,99152.91
2022-08-19T11:18:03.432Z,99167.17
2022-08-19T11:19:07.288Z,99164.05
2022-08-19T11:20:11.676Z,99160.49
2022-08-19T11:21:14.312Z,99159.66
2022-08-19T11:22:19.418Z,99159.25
2022-08-19T11:23:22.724Z,99156.00
2022-08-19T11:24:26.002Z,99159.48
2022-08-19T11:25:28.680Z,99165.72
2022-08-19T11:26:33.186Z,99158.67
2022-08-19T11:27:35.751Z,99156.29
2022-08-19T11:28:38.319Z,99157.95
2022-08-19T11:29:40.990Z,99152.53
2022-08-19T11:30:44.782Z,99155.63
2022-08-19T11:31:47.351Z,99165.02
2022-08-19T11:32:49.928Z,99161.71
2022-08-19T11:33:52.586Z,99156.44
2022-08-19T11:34:55.110Z,99157.16
2022-08-19T11:35:57.728Z,99150.55
2022-08-19T11:37:00.790Z,99145.89
2022-08-19T11:38:05.476Z,99148.95
2022-08-19T11:39:08.291Z,99148.33
2022-08-19T11:40:11.417Z,99143.05
2022-08-19T11:41:14.550Z,99147.25
2022-08-19T11:42:17.121Z,99157.02
2022-08-19T11:43:20.533Z,99140.78
2022-08-19T11:44:23.437Z,99144.27
2022-08-19T11:45:26.047Z,99154.77
2022-08-19T11:46:30.038Z,99147.09
2022-08-19T11:47:32.618Z,99146.19
2022-08-19T11:48:35.405Z,99144.63
2022-08-19T11:49:37.947Z,99142.25
2022-08-19T11:50:42.259Z,99133.51
2022-08-19T11:51:44.886Z,99135.27
2022-08-19T11:52:47.499Z,99132.37
2022-08-19T11:53:50.160Z,99128.77
2022-08-19T11:54:52.727Z,99134.05
2022-08-19T11:55:55.606Z,99127.25
2022-08-19T11:56:58.895Z,99128.06
2022-08-19T11:58:01.514Z,99125.22
2022-08-19T11:59:04.188Z,99130.30
2022-08-19T12:00:07.215Z,99130.50
2022-08-19T12:01:09.873Z,99127.50
2022-08-19T12:02:12.500Z,99125.45
2022-08-19T12:03:16.909Z,99131.11
2022-08-19T12:04:19.601Z,99131.39
2022-08-19T12:05:23.108Z,99131.44
2022-08-19T12:06:27.475Z,99131.28
2022-08-19T12:07:30.352Z,99130.02
2022-08-19T12:08:33.163Z,99136.17
2022-08-19T12:09:35.666Z,99124.92
2022-08-19T12:10:39.022Z,99125.13
2022-08-19T12:11:41.790Z,99126.88
2022-08-19T12:12:44.380Z,99123.93
2022-08-19T12:13:48.833Z,99123.44
2022-08-19T12:14:51.638Z,99128.80
2022-08-19T12:15:54.210Z,99126.84
2022-08-19T12:16:57.284Z,99118.91
2022-08-19T12:17:59.853Z,99118.38
2022-08-19T12:19:02.371Z,99120.91
2022-08-19T12:20:05.292Z,99124.87
2022-08-19T12:21:07.861Z,99109.09
2022-08-19T12:22:10.424Z,99116.51
2022-08-19T12:23:12.992Z,99122.03
2022-08-19T12:24:15.968Z,99120.38
2022-08-19T12:25:18.513Z,99109.68
2022-08-19T12:26:23.559Z,99114.28
2022-08-19T12:27:39.857Z,99117.44